Oceana Nas /Apollo Soucek Field/ Station
KNTU : now visible

Airfield :











YOU CAN JOIN US ON...

 
LOGIN :

Register | Disclaimer

   EN    FR    IT 

 









Legend :    VFR   Marginal VFR   IFR   Intensive IFR   Very Intensive IFR
Visi :
Ceiling :
>= 8 km
>= 3000ft
5 to 8 km
1000 to 3000 ft
1500m to 5 km
500 to 1000 ft
800 to 1500m
200 to 500 ft
< 800m
< 200 ft
Symbols :   Thunderstorms  Fog  Heavy snow  Heavy precipitations  Wind > 20 kt






- Airport Elevation : 23 ft


KNTU - Oceana Nas /Apollo Soucek Field/ Station

CURRENT METAR :
  • 171756Z 08012KT 10SM FEW030 SCT250 23/06 A3030 RMK AO2 SLP263 T02280056 10233 20189 58004

EXPIRED METARs :
  • 171656Z 09009KT 10SM FEW030 SCT100 BKN250 23/08 A3031 RMK AO2 SLP266 T02330078
  • 171556Z 11010KT 10SM FEW030 SCT100 BKN250 22/11 A3031 RMK AO2 SLP267 T02220111

TAF TAF KNTU
Valid from the 17 at 15:00 until the 18 at 15:00 UTC


1715/1815 09009KT 9999 FEW030 SCT100 BKN250 QNH3025INS
TEMPO 1716/1722 BKN030 BKN100 BKN250
FM180100 VRB06KT 9999 FEW050 SCT250 QNH3029INS
FM180900 VRB06KT 9999 FEW015 SCT250 QNH3031INS T25/1719Z T12/1808Z FN20008
KZDC FIR / North America



MET'MAP, your aeronautical weather chart ! - Copyright ORBIFLY December 2007 - Disclaimer

ORBIFLY MET'MAP TEAM :

Programming & Development : Alexandra Zaïnal
Concept & original design : Baudouin d'Aumeries
Assistance for programming : Marc-Olivier Méhu
Technical & hardware support : Manuel Goepfert

Contact : metmap@orbifly.com




SOURCES & CREDITS :

   NOAA       Earth
Advisory